Athens, Arkansas
Current Conditions -  °F | °C
As of 12:55 PM on Sunday 23 Nov 2014 (Local Time) from KMEZ Reporting Station
Broken Clouds Broken Clouds  
Wind Chill: 64°   Ceiling: 1400
Heat Index: 64°   Visibility: 10mi
Dew Point: 59°   Wind: 5mph
Humidity: 83%   Direction: 230°SW
Pressure: 29.39"   Gusts: NA
Location:  34.2871°N, 94.1174°W
Report Text: KMEZ 231855Z AUTO 23004KT 10SM BKN014 BKN021 18/15 A2939 RMK AO2
Loading
Personal Weather Stations






























Interactive Weather Map New forecast layout! Learn more

10-Day Weather Forecast

Advertisements
Track Severe Weather on mobile